Time;durP1;ratioP1;P1;durP2;ratioP2;P2;SDS_P1;SDS_P2;PMS_P1;PMS_P2;Temp;Humidity;BMP_temperature;BMP_pressure;BME280_temperature;BME280_humidity;BME280_pressure;Samples;Min_cycle;Max_cycle;Signal;HPM_P1;HPM_P2
2023/03/12 00:01:46;;;;;;;3.20;1.77;;;-1.10;97.30;;;;;;5043818;28;20459;-87
2023/03/12 00:04:18;;;;;;;1.07;0.97;;;-1.10;97.30;;;;;;5051988;28;20208;-87
2023/03/12 00:09:48;;;;;;;1.93;1.83;;;-1.20;97.30;;;;;;5016848;28;20417;-88
2023/03/12 00:12:17;;;;;;;1.10;1.00;;;-1.20;97.30;;;;;;5061480;28;20405;-87
2023/03/12 00:14:49;;;;;;;1.73;1.63;;;-1.20;97.30;;;;;;5059269;28;20527;-88
2023/03/12 00:17:18;;;;;;;1.70;1.60;;;-1.20;97.30;;;;;;5041495;28;20227;-88
2023/03/12 00:19:51;;;;;;;1.40;1.30;;;-1.20;97.30;;;;;;5039197;28;20414;-87
2023/03/12 00:22:17;;;;;;;1.63;1.53;;;-1.20;97.30;;;;;;5040092;28;20412;-87
2023/03/12 00:24:58;;;;;;;1.10;1.00;;;-1.20;97.30;;;;;;5050183;28;20242;-87
2023/03/12 00:27:26;;;;;;;1.63;1.53;;;-1.20;97.30;;;;;;5033848;28;20199;-87
2023/03/12 00:29:52;;;;;;;2.93;2.73;;;-1.20;97.30;;;;;;5046695;28;20381;-88
2023/03/12 00:32:18;;;;;;;1.90;1.80;;;-1.20;97.30;;;;;;5042999;28;20463;-88
2023/03/12 00:34:48;;;;;;;1.93;1.43;;;-1.10;97.30;;;;;;5046235;28;20434;-88
2023/03/12 00:37:14;;;;;;;1.33;1.23;;;-1.20;97.30;;;;;;5036446;28;20901;-87
2023/03/12 00:39:42;;;;;;;1.73;1.63;;;-1.20;97.30;;;;;;5035765;28;20489;-88
2023/03/12 00:42:07;;;;;;;1.30;1.20;;;-1.20;97.30;;;;;;5049168;28;20187;-87
2023/03/12 00:44:33;;;;;;;1.70;1.60;;;-1.20;97.30;;;;;;5036055;28;20227;-87
2023/03/12 00:46:58;;;;;;;1.30;1.20;;;-1.20;97.30;;;;;;5041277;28;20207;-87
2023/03/12 00:49:24;;;;;;;1.30;1.20;;;-1.20;97.30;;;;;;5040623;28;20175;-88
2023/03/12 00:51:49;;;;;;;2.23;1.37;;;-1.20;97.30;;;;;;5042453;28;20410;-87
2023/03/12 00:54:15;;;;;;;1.77;1.67;;;-1.20;97.30;;;;;;5048458;28;20234;-87
2023/03/12 00:56:40;;;;;;;1.70;1.60;;;-1.20;97.30;;;;;;5041181;28;20209;-87
2023/03/12 00:59:06;;;;;;;1.87;1.77;;;-1.20;97.30;;;;;;5031786;28;20218;-87
2023/03/12 01:01:31;;;;;;;1.30;1.20;;;-1.20;97.30;;;;;;5049339;28;20178;-87
2023/03/12 01:03:58;;;;;;;1.33;1.23;;;-1.20;97.30;;;;;;5046331;28;20571;-87
2023/03/12 01:06:24;;;;;;;1.57;1.47;;;-1.20;97.30;;;;;;5037196;28;20261;-86
2023/03/12 01:08:50;;;;;;;1.47;1.37;;;-1.20;97.30;;;;;;5048416;28;20426;-87
2023/03/12 01:11:18;;;;;;;1.90;1.80;;;-1.20;97.30;;;;;;5046732;28;20391;-87
2023/03/12 01:13:44;;;;;;;1.10;1.00;;;-1.20;97.30;;;;;;5032011;28;20184;-87
2023/03/12 01:16:12;;;;;;;2.27;2.10;;;-1.20;97.30;;;;;;5036271;28;20405;-87
2023/03/12 01:18:38;;;;;;;21.37;2.50;;;-1.20;97.30;;;;;;5040268;28;20426;-87
2023/03/12 01:21:04;;;;;;;1.10;1.00;;;-1.20;97.30;;;;;;5043968;28;20394;-87
2023/03/12 01:23:30;;;;;;;3.30;3.00;;;-1.20;97.30;;;;;;5031591;28;20734;-87
2023/03/12 01:25:55;;;;;;;2.30;2.10;;;-1.30;97.30;;;;;;5040638;28;20493;-87
2023/03/12 01:28:22;;;;;;;1.70;1.60;;;-1.20;97.30;;;;;;5046194;28;20560;-87
2023/03/12 01:30:48;;;;;;;1.37;1.27;;;-1.20;97.30;;;;;;5041573;28;20186;-87
2023/03/12 01:33:14;;;;;;;1.10;1.00;;;-1.20;97.30;;;;;;5045030;28;20425;-87
2023/03/12 01:35:40;;;;;;;4.93;2.53;;;-1.20;97.30;;;;;;5034038;28;20565;-87
2023/03/12 01:38:08;;;;;;;1.10;1.00;;;-1.20;97.30;;;;;;5042160;28;20548;-87
2023/03/12 01:40:35;;;;;;;2.80;2.60;;;-1.20;97.30;;;;;;5031646;28;20413;-87
2023/03/12 01:43:23;;;;;;;2.57;1.90;;;-1.20;97.30;;;;;;5041686;28;20401;-87
2023/03/12 01:46:04;;;;;;;1.10;1.00;;;-1.20;97.30;;;;;;5038329;28;20415;-87
2023/03/12 01:48:39;;;;;;;1.30;1.20;;;-1.20;97.30;;;;;;5039642;28;20547;-87
2023/03/12 01:51:07;;;;;;;1.60;1.50;;;-1.20;97.30;;;;;;5032181;28;20410;-87
2023/03/12 01:53:33;;;;;;;4.30;1.73;;;-1.20;97.30;;;;;;5043942;28;20458;-88
2023/03/12 01:56:00;;;;;;;1.30;1.20;;;-1.20;97.30;;;;;;5038828;28;20991;-87
2023/03/12 01:58:29;;;;;;;1.10;1.00;;;-1.20;97.30;;;;;;5041130;28;20401;-87
2023/03/12 02:00:58;;;;;;;1.40;1.30;;;-1.30;97.30;;;;;;5045248;28;20921;-87
2023/03/12 02:03:48;;;;;;;1.70;1.60;;;-1.30;97.30;;;;;;5057687;23;20476;-86
2023/03/12 02:09:47;;;;;;;8.20;1.87;;;-1.30;97.30;;;;;;5057279;28;20470;-85
2023/03/12 02:12:29;;;;;;;1.10;1.00;;;-1.30;97.30;;;;;;5054981;28;20952;-85
2023/03/12 02:14:58;;;;;;;1.83;1.73;;;-1.30;97.30;;;;;;5063114;28;20449;-86
2023/03/12 02:17:40;;;;;;;;;;;;;;;;;;;;;
2023/03/12 02:20:34;;;;;;;1.30;1.20;;;-1.30;97.30;;;;;;5078555;28;20214;-86
2023/03/12 02:23:15;;;;;;;1.60;1.50;;;-1.30;97.30;;;;;;5072864;28;20412;-85
2023/03/12 02:25:50;;;;;;;1.30;1.20;;;-1.30;97.30;;;;;;5070546;28;20439;-86
2023/03/12 02:28:18;;;;;;;1.20;1.10;;;-1.40;97.30;;;;;;5076322;28;20450;-86
2023/03/12 02:30:47;;;;;;;1.40;1.30;;;-1.30;97.30;;;;;;5062222;28;20932;-86
2023/03/12 02:33:14;;;;;;;1.20;1.10;;;-1.40;97.30;;;;;;5059231;28;20211;-85
2023/03/12 02:35:40;;;;;;;1.30;1.20;;;-1.40;97.30;;;;;;5063545;28;20751;-85
2023/03/12 02:38:24;;;;;;;1.27;1.17;;;-1.40;97.30;;;;;;5066615;28;20417;-85
2023/03/12 02:40:51;;;;;;;4.00;1.20;;;-1.50;97.30;;;;;;5066952;28;20975;-86
2023/03/12 02:43:19;;;;;;;2.40;2.20;;;-1.50;97.30;;;;;;5068723;28;20437;-86
2023/03/12 02:45:44;;;;;;;2.63;2.43;;;-1.50;97.30;;;;;;5069511;28;20367;-86
2023/03/12 02:48:10;;;;;;;1.10;1.00;;;-1.50;97.30;;;;;;5071988;28;20494;-86
2023/03/12 02:50:35;;;;;;;1.30;1.20;;;-1.50;97.30;;;;;;5060593;28;20185;-86
2023/03/12 02:53:01;;;;;;;1.30;1.20;;;-1.60;97.30;;;;;;5066690;28;20233;-85
2023/03/12 02:55:26;;;;;;;1.77;1.67;;;-1.60;97.30;;;;;;5082699;28;20202;-83
2023/03/12 02:57:52;;;;;;;1.20;1.10;;;-1.60;97.30;;;;;;5093176;28;20180;-83
2023/03/12 03:00:18;;;;;;;1.40;1.30;;;-1.60;97.30;;;;;;5070352;28;20171;-85
2023/03/12 03:02:44;;;;;;;1.30;1.20;;;-1.60;97.30;;;;;;5060224;28;20179;-86
2023/03/12 03:05:10;;;;;;;11.03;1.83;;;-1.60;97.30;;;;;;5057955;28;21044;-85
2023/03/12 03:07:36;;;;;;;5.50;3.47;;;-1.60;97.30;;;;;;5066801;28;20220;-83
2023/03/12 03:10:04;;;;;;;1.50;1.40;;;-1.60;97.30;;;;;;5077080;28;20503;-84
2023/03/12 03:12:30;;;;;;;1.33;1.23;;;-1.60;97.30;;;;;;5069509;28;20781;-85
2023/03/12 03:14:56;;;;;;;1.10;1.00;;;-1.60;97.30;;;;;;5067964;28;20634;-85
2023/03/12 03:17:23;;;;;;;1.30;1.20;;;-1.60;97.30;;;;;;5075252;28;20419;-85
2023/03/12 03:19:49;;;;;;;2.90;2.70;;;-1.60;97.30;;;;;;5068768;28;20182;-85
2023/03/12 03:22:15;;;;;;;1.30;1.20;;;-1.60;97.30;;;;;;5064444;28;20217;-85
2023/03/12 03:24:41;;;;;;;1.73;1.63;;;-1.60;97.30;;;;;;5063402;28;20498;-84
2023/03/12 03:27:06;;;;;;;1.45;1.35;;;-1.60;97.30;;;;;;5063888;28;20704;-85
2023/03/12 03:29:32;;;;;;;1.50;1.40;;;-1.60;97.30;;;;;;5062129;28;20438;-85
2023/03/12 03:31:57;;;;;;;1.30;1.20;;;-1.60;97.30;;;;;;5068804;28;20161;-85
2023/03/12 03:34:23;;;;;;;1.30;1.20;;;-1.60;97.30;;;;;;5060242;28;20662;-85
2023/03/12 03:36:48;;;;;;;8.83;2.37;;;-1.60;97.30;;;;;;5064495;28;20188;-85
2023/03/12 03:39:14;;;;;;;1.20;1.10;;;-1.60;97.30;;;;;;5073117;28;20183;-85
2023/03/12 03:41:39;;;;;;;1.17;1.07;;;-1.60;97.30;;;;;;5066196;28;20186;-85
2023/03/12 03:44:06;;;;;;;1.10;1.00;;;-1.60;97.30;;;;;;5065201;28;20278;-85
2023/03/12 03:46:34;;;;;;;1.20;1.10;;;-1.60;97.30;;;;;;5058478;28;20280;-86
2023/03/12 03:49:00;;;;;;;1.87;1.77;;;-1.60;97.30;;;;;;5061233;28;20401;-86
2023/03/12 03:51:26;;;;;;;1.30;1.20;;;-1.60;97.30;;;;;;5071463;28;20792;-86
2023/03/12 03:53:51;;;;;;;1.77;1.67;;;-1.60;97.30;;;;;;5061161;28;20424;-85
2023/03/12 03:56:17;;;;;;;1.20;1.10;;;-1.60;97.30;;;;;;5072775;28;20197;-83
2023/03/12 03:58:42;;;;;;;1.33;1.23;;;-1.60;97.30;;;;;;5083929;28;20187;-85
2023/03/12 04:01:08;;;;;;;1.20;1.10;;;-1.60;97.30;;;;;;5057912;28;20195;-85
2023/03/12 04:03:59;;;;;;;4.50;2.70;;;-1.60;97.30;;;;;;5057143;28;20238;-83
2023/03/12 04:06:28;;;;;;;2.70;1.83;;;-1.60;97.30;;;;;;5054353;28;20217;-85
2023/03/12 04:08:58;;;;;;;1.70;1.60;;;-1.60;97.30;;;;;;5055839;28;20233;-84
2023/03/12 04:11:29;;;;;;;2.10;1.37;;;-1.60;97.30;;;;;;5056709;28;20413;-85
2023/03/12 04:13:57;;;;;;;21.00;1.47;;;-1.60;97.30;;;;;;5065921;28;20415;-84
2023/03/12 04:16:30;;;;;;;8.20;2.70;;;-1.60;97.30;;;;;;5072189;28;20400;-85
2023/03/12 04:18:59;;;;;;;3.90;2.20;;;-1.60;97.30;;;;;;5062899;28;20393;-85
2023/03/12 04:21:27;;;;;;;2.37;2.17;;;-1.60;97.30;;;;;;5063062;28;20462;-85
2023/03/12 04:23:53;;;;;;;1.30;1.20;;;-1.60;97.30;;;;;;5059614;28;20436;-85
2023/03/12 04:26:19;;;;;;;1.70;1.63;;;-1.60;97.30;;;;;;5063574;28;20416;-85
2023/03/12 04:28:44;;;;;;;1.10;1.00;;;-1.60;97.30;;;;;;5060435;28;20187;-85
2023/03/12 04:31:10;;;;;;;1.10;1.00;;;-1.60;97.30;;;;;;5080524;28;20203;-84
2023/03/12 04:33:39;;;;;;;1.10;1.00;;;-1.60;97.30;;;;;;5064889;28;20444;-84
2023/03/12 04:36:10;;;;;;;1.27;1.17;;;-1.60;97.30;;;;;;5056186;28;20470;-85
2023/03/12 04:38:38;;;;;;;2.27;2.13;;;-1.60;97.30;;;;;;5057311;28;20225;-85
2023/03/12 04:41:09;;;;;;;1.47;1.37;;;-1.60;97.30;;;;;;5055721;28;20401;-85
2023/03/12 04:43:38;;;;;;;1.20;1.10;;;-1.60;97.30;;;;;;5063155;28;20512;-85
2023/03/12 04:46:10;;;;;;;1.77;1.20;;;-1.50;97.30;;;;;;5067454;28;20403;-84
2023/03/12 04:48:38;;;;;;;1.20;1.10;;;-1.50;97.30;;;;;;5062947;28;20459;-85
2023/03/12 04:51:09;;;;;;;1.50;1.40;;;-1.50;97.30;;;;;;5060858;28;20419;-85
2023/03/12 04:53:39;;;;;;;1.10;1.00;;;-1.50;97.30;;;;;;5080615;28;20295;-85
2023/03/12 04:56:08;;;;;;;1.20;1.10;;;-1.60;97.30;;;;;;5073260;28;20390;-85
2023/03/12 04:58:36;;;;;;;1.50;1.40;;;-1.60;97.30;;;;;;5056180;28;20416;-85
2023/03/12 05:01:02;;;;;;;1.20;1.10;;;-1.60;97.30;;;;;;5064517;28;20214;-85
2023/03/12 05:03:28;;;;;;;1.13;1.10;;;-1.70;97.30;;;;;;5058550;28;20577;-87
2023/03/12 05:05:53;;;;;;;1.50;1.40;;;-1.70;97.30;;;;;;5069021;28;20411;-85
2023/03/12 05:08:19;;;;;;;1.30;1.20;;;-1.70;97.30;;;;;;5059944;28;20602;-85
2023/03/12 05:10:45;;;;;;;1.23;1.13;;;-1.70;97.30;;;;;;5068098;28;20173;-85
2023/03/12 05:13:21;;;;;;;1.43;1.33;;;-1.80;97.30;;;;;;5060378;28;20198;-85
2023/03/12 05:15:49;;;;;;;1.20;1.10;;;-1.80;97.30;;;;;;5067482;28;20683;-84
2023/03/12 05:18:15;;;;;;;1.23;1.13;;;-1.90;97.30;;;;;;5064926;28;20514;-86
2023/03/12 05:20:40;;;;;;;1.10;1.00;;;-1.90;97.30;;;;;;5066155;28;20470;-85
2023/03/12 05:23:06;;;;;;;1.43;1.33;;;-1.90;97.30;;;;;;5065415;28;20459;-86
2023/03/12 05:25:31;;;;;;;1.30;1.20;;;-2.00;97.30;;;;;;5058083;28;20638;-84
2023/03/12 05:27:57;;;;;;;1.10;1.00;;;-2.00;97.30;;;;;;5063029;28;20198;-82
2023/03/12 05:30:22;;;;;;;0.90;0.80;;;-2.10;97.30;;;;;;5071265;28;20173;-85
2023/03/12 05:32:48;;;;;;;2.23;2.03;;;-2.10;97.30;;;;;;5088020;28;20182;-85
2023/03/12 05:35:13;;;;;;;3.83;2.57;;;-2.10;97.30;;;;;;5060638;28;20178;-85
2023/03/12 05:37:41;;;;;;;1.40;1.30;;;-2.10;97.30;;;;;;5070668;28;20178;-84
2023/03/12 05:40:11;;;;;;;1.70;1.60;;;-2.10;97.30;;;;;;5076640;28;20185;-85
2023/03/12 05:42:36;;;;;;;1.27;1.17;;;-2.10;97.30;;;;;;5059488;28;20424;-84
2023/03/12 05:45:03;;;;;;;1.60;1.50;;;-2.10;97.30;;;;;;5067996;28;20582;-86
2023/03/12 05:47:29;;;;;;;1.73;1.63;;;-2.00;97.30;;;;;;5078158;28;20282;-84
2023/03/12 05:49:55;;;;;;;1.90;1.67;;;-2.00;97.30;;;;;;5074307;28;20444;-84
2023/03/12 05:52:20;;;;;;;1.13;1.03;;;-2.00;97.30;;;;;;5070764;28;20175;-85
2023/03/12 05:54:46;;;;;;;2.20;1.20;;;-2.00;97.30;;;;;;5077031;28;20195;-85
2023/03/12 05:57:11;;;;;;;1.30;1.20;;;-2.10;97.30;;;;;;5075515;28;20239;-85
2023/03/12 05:59:37;;;;;;;2.23;1.87;;;-2.10;97.30;;;;;;5073832;28;20261;-85
2023/03/12 06:02:02;;;;;;;1.30;1.20;;;-2.20;97.30;;;;;;5092459;28;20175;-85
2023/03/12 06:04:28;;;;;;;1.30;1.20;;;-2.30;97.30;;;;;;5080215;28;20245;-87
2023/03/12 06:06:54;;;;;;;1.10;1.00;;;-2.30;97.30;;;;;;5068610;28;20269;-85
2023/03/12 06:09:19;;;;;;;1.00;0.90;;;-2.30;97.30;;;;;;5069287;28;20444;-85
2023/03/12 06:11:45;;;;;;;1.10;1.00;;;-2.30;97.30;;;;;;5078563;28;20242;-83
2023/03/12 06:14:11;;;;;;;1.60;1.50;;;-2.30;97.30;;;;;;5089207;28;20279;-83
2023/03/12 06:16:37;;;;;;;1.10;1.00;;;-2.30;97.30;;;;;;5067951;28;20177;-84
2023/03/12 06:19:03;;;;;;;2.33;2.13;;;-2.20;97.30;;;;;;5078886;28;20419;-85
2023/03/12 06:21:32;;;;;;;1.63;1.53;;;-2.10;97.30;;;;;;5084125;28;20197;-85
2023/03/12 06:23:58;;;;;;;1.50;1.40;;;-2.10;97.30;;;;;;5074757;28;20411;-86
2023/03/12 06:26:24;;;;;;;1.63;1.53;;;-2.00;97.30;;;;;;5071900;28;20416;-86
2023/03/12 06:28:51;;;;;;;1.20;1.10;;;-2.00;97.30;;;;;;5071204;28;20510;-83
2023/03/12 06:31:17;;;;;;;3.77;1.00;;;-1.90;97.30;;;;;;5079475;28;20400;-86
2023/03/12 06:33:43;;;;;;;1.20;1.10;;;-1.90;97.30;;;;;;5066964;28;20459;-85
2023/03/12 06:36:09;;;;;;;1.20;1.10;;;-1.70;97.30;;;;;;5074743;28;20923;-85
2023/03/12 06:38:35;;;;;;;1.10;1.00;;;-1.70;97.30;;;;;;5067127;28;20178;-83
2023/03/12 06:41:10;;;;;;;3.43;1.13;;;-1.60;97.30;;;;;;5070755;28;20633;-85
2023/03/12 06:43:40;;;;;;;1.37;1.27;;;-1.50;97.30;;;;;;5073014;28;20481;-85
2023/03/12 06:46:12;;;;;;;1.30;1.20;;;-1.40;97.30;;;;;;5072526;28;20399;-85
2023/03/12 06:48:40;;;;;;;1.80;1.70;;;-1.30;97.30;;;;;;5090456;28;20490;-84
2023/03/12 06:51:10;;;;;;;1.63;1.50;;;-1.20;97.30;;;;;;5077720;28;20413;-85
2023/03/12 06:53:39;;;;;;;1.20;1.10;;;-1.00;97.30;;;;;;5068860;28;20437;-84
2023/03/12 06:56:08;;;;;;;1.10;1.00;;;-0.90;97.30;;;;;;5064293;28;20449;-84
2023/03/12 06:58:34;;;;;;;1.00;0.90;;;-0.80;97.30;;;;;;5060356;28;20428;-85
2023/03/12 07:00:59;;;;;;;1.40;1.30;;;-0.70;97.30;;;;;;5060841;28;20412;-85
2023/03/12 07:03:28;;;;;;;2.10;1.13;;;-0.60;97.30;;;;;;5067887;28;20252;-85
2023/03/12 07:05:55;;;;;;;2.73;2.53;;;-0.60;97.30;;;;;;5071145;28;20558;-84
2023/03/12 07:08:21;;;;;;;1.10;1.00;;;-0.50;97.30;;;;;;5083282;28;20241;-85
2023/03/12 07:10:47;;;;;;;1.10;1.00;;;-0.40;97.30;;;;;;5089868;28;20492;-83
2023/03/12 07:13:13;;;;;;;1.40;1.30;;;-0.30;97.30;;;;;;5108501;28;20424;-84
2023/03/12 07:15:38;;;;;;;5.53;1.47;;;-0.20;97.30;;;;;;5111967;28;20167;-84
2023/03/12 07:18:06;;;;;;;1.33;1.23;;;-0.10;97.30;;;;;;5083235;28;20172;-86
2023/03/12 07:20:34;;;;;;;1.30;1.20;;;0.00;97.30;;;;;;5086633;28;20253;-85
2023/03/12 07:23:00;;;;;;;9.83;1.43;;;0.10;97.30;;;;;;5083818;28;20412;-82
2023/03/12 07:25:25;;;;;;;3.57;1.83;;;0.10;97.30;;;;;;5068812;28;20423;-85
2023/03/12 07:27:51;;;;;;;1.03;0.93;;;0.20;97.30;;;;;;5072988;28;20567;-83
2023/03/12 07:30:17;;;;;;;1.40;1.30;;;0.30;97.30;;;;;;5066038;28;20208;-85
2023/03/12 07:32:42;;;;;;;1.93;1.83;;;0.40;97.30;;;;;;5072894;28;20597;-82
2023/03/12 07:35:08;;;;;;;1.10;1.00;;;0.50;97.30;;;;;;5069715;28;20197;-85
2023/03/12 07:37:33;;;;;;;1.00;0.90;;;0.60;97.30;;;;;;5077996;28;20262;-86
2023/03/12 07:39:59;;;;;;;1.20;1.10;;;0.70;97.30;;;;;;5074436;28;20410;-84
2023/03/12 07:42:25;;;;;;;1.00;0.90;;;0.80;97.30;;;;;;5064410;28;20713;-85
2023/03/12 07:44:50;;;;;;;1.40;1.30;;;0.90;97.30;;;;;;5066072;28;20752;-85
2023/03/12 07:47:16;;;;;;;1.30;1.20;;;1.00;97.30;;;;;;5065891;28;20236;-85
2023/03/12 07:49:41;;;;;;;1.23;1.20;;;1.10;97.30;;;;;;5071402;28;20546;-84
2023/03/12 07:52:10;;;;;;;2.30;2.13;;;1.20;97.30;;;;;;5067269;28;20173;-85
2023/03/12 07:54:36;;;;;;;1.20;1.10;;;1.30;97.30;;;;;;5061484;28;20194;-87
2023/03/12 07:57:02;;;;;;;1.00;0.90;;;1.40;97.30;;;;;;5080615;28;20415;-87
2023/03/12 07:59:28;;;;;;;1.13;1.03;;;1.50;97.30;;;;;;5082663;28;20945;-87
2023/03/12 08:01:59;;;;;;;1.20;1.10;;;1.60;97.30;;;;;;5075438;28;20281;-84
2023/03/12 08:04:28;;;;;;;1.47;1.37;;;1.60;97.30;;;;;;5075464;28;20229;-85
2023/03/12 08:06:54;;;;;;;1.00;0.90;;;1.60;97.30;;;;;;5059938;28;20239;-85
2023/03/12 08:09:19;;;;;;;1.27;1.20;;;1.60;97.30;;;;;;5068113;28;20393;-85
2023/03/12 08:11:50;;;;;;;1.43;1.33;;;1.70;97.30;;;;;;5072106;28;20583;-85
2023/03/12 08:14:19;;;;;;;1.17;1.07;;;1.70;97.30;;;;;;5074491;28;20232;-85
2023/03/12 08:17:10;;;;;;;1.30;1.20;;;1.70;97.30;;;;;;5070184;28;20202;-85
2023/03/12 08:19:39;;;;;;;1.67;1.57;;;1.80;97.30;;;;;;5057987;28;20787;-85
2023/03/12 08:22:08;;;;;;;4.40;1.65;;;1.90;97.30;;;;;;5078308;28;20223;-87
2023/03/12 08:24:40;;;;;;;1.20;1.10;;;1.90;97.30;;;;;;5070617;28;20436;-85
2023/03/12 08:27:19;;;;;;;2.20;1.00;;;2.00;97.30;;;;;;5074134;28;21073;-84
2023/03/12 08:29:48;;;;;;;1.00;0.90;;;2.20;97.30;;;;;;5064500;28;20450;-85
2023/03/12 08:32:19;;;;;;;1.00;0.90;;;2.30;97.30;;;;;;5069161;28;20210;-85
2023/03/12 08:34:47;;;;;;;1.57;1.47;;;2.40;97.30;;;;;;5072332;28;20519;-86
2023/03/12 08:37:15;;;;;;;1.17;1.07;;;2.50;97.30;;;;;;5080229;28;20794;-85
2023/03/12 08:39:40;;;;;;;1.60;1.50;;;2.60;97.30;;;;;;5060964;28;20819;-89
2023/03/12 08:42:06;;;;;;;1.40;1.30;;;2.60;97.30;;;;;;5088251;28;20249;-89
2023/03/12 08:44:32;;;;;;;1.20;1.10;;;2.70;97.30;;;;;;5064929;28;20190;-88
2023/03/12 08:46:57;;;;;;;1.20;1.10;;;2.80;97.30;;;;;;5072794;28;20364;-86
2023/03/12 08:49:23;;;;;;;1.10;1.00;;;2.90;97.30;;;;;;5066764;28;20212;-89
2023/03/12 08:51:50;;;;;;;3.33;2.23;;;3.10;97.30;;;;;;5056731;28;20178;-88
2023/03/12 08:54:17;;;;;;;1.13;1.00;;;3.20;96.80;;;;;;5070124;28;20179;-86
2023/03/12 08:56:43;;;;;;;1.10;1.00;;;3.20;96.50;;;;;;5072081;28;20218;-87
2023/03/12 08:59:10;;;;;;;1.20;1.10;;;3.20;95.70;;;;;;5069197;28;20210;-87
2023/03/12 09:01:36;;;;;;;1.47;1.40;;;3.20;95.80;;;;;;5081305;28;20281;-87
2023/03/12 09:04:03;;;;;;;0.93;0.83;;;3.30;96.20;;;;;;5067335;28;20262;-87
2023/03/12 09:06:29;;;;;;;2.00;1.40;;;3.40;96.80;;;;;;5061112;28;20211;-89
2023/03/12 09:08:54;;;;;;;1.30;1.20;;;3.50;97.10;;;;;;5064702;28;20467;-87
2023/03/12 09:11:20;;;;;;;1.63;1.10;;;3.60;96.10;;;;;;5059028;28;20182;-88
2023/03/12 09:13:45;;;;;;;1.57;1.23;;;3.60;96.30;;;;;;5064489;28;20197;-87
2023/03/12 09:16:11;;;;;;;1.10;1.00;;;3.60;95.80;;;;;;5065523;28;20183;-86
2023/03/12 09:18:36;;;;;;;1.43;1.33;;;3.70;95.50;;;;;;5059963;28;20189;-86
2023/03/12 09:21:05;;;;;;;1.10;1.00;;;3.60;94.80;;;;;;5064425;28;20183;-90
2023/03/12 09:23:30;;;;;;;1.97;1.77;;;3.70;95.00;;;;;;5064832;28;20213;-87
2023/03/12 09:25:56;;;;;;;0.87;0.77;;;3.70;95.00;;;;;;5073118;28;20914;-86
2023/03/12 09:28:22;;;;;;;1.30;1.20;;;3.60;94.70;;;;;;5055310;28;20199;-87
2023/03/12 09:30:47;;;;;;;1.43;1.33;;;3.70;95.10;;;;;;5071746;28;20207;-87
2023/03/12 09:33:17;;;;;;;1.80;1.70;;;3.70;95.30;;;;;;5064782;28;20202;-87
2023/03/12 09:35:43;;;;;;;1.00;1.00;;;3.70;94.90;;;;;;5056922;28;20232;-87
2023/03/12 09:38:12;;;;;;;1.05;1.00;;;3.80;95.30;;;;;;5067642;28;20232;-88
2023/03/12 09:40:38;;;;;;;1.30;1.20;;;3.90;94.90;;;;;;5060946;28;20432;-86
2023/03/12 09:43:12;;;;;;;2.00;1.57;;;4.00;95.40;;;;;;5070517;28;20629;-86
2023/03/12 09:45:42;;;;;;;2.87;1.47;;;4.20;95.50;;;;;;5068198;28;20462;-86
2023/03/12 09:48:19;;;;;;;1.00;0.90;;;4.40;95.30;;;;;;5069349;28;20498;-85
2023/03/12 09:50:48;;;;;;;1.30;1.20;;;4.50;94.40;;;;;;5065248;28;20815;-86
2023/03/12 09:53:26;;;;;;;1.20;1.10;;;4.50;93.50;;;;;;5060829;28;20459;-88
2023/03/12 09:55:54;;;;;;;1.20;1.10;;;4.50;93.60;;;;;;5062463;28;20443;-86
2023/03/12 09:58:35;;;;;;;1.93;1.20;;;4.60;94.30;;;;;;5066876;28;20317;-89
2023/03/12 10:01:22;;;;;;;1.55;1.45;;;4.80;93.30;;;;;;5063384;28;20409;-86
2023/03/12 10:04:19;;;;;;;2.37;2.17;;;4.80;93.00;;;;;;5070532;28;20832;-88
2023/03/12 10:06:58;;;;;;;1.45;1.40;;;4.90;92.50;;;;;;5064987;28;20499;-87
2023/03/12 10:09:46;;;;;;;0.90;0.80;;;5.00;92.10;;;;;;5072236;28;20411;-86
2023/03/12 10:12:33;;;;;;;1.00;0.90;;;5.00;91.80;;;;;;5071269;28;20419;-86
2023/03/12 10:15:06;;;;;;;1.20;1.10;;;5.10;92.30;;;;;;5061389;28;20425;-86
2023/03/12 10:18:04;;;;;;;2.90;1.73;;;5.10;90.90;;;;;;5068426;28;20427;-86
2023/03/12 10:20:49;;;;;;;1.00;0.90;;;5.20;91.80;;;;;;5039803;28;20416;-87
2023/03/12 10:23:36;;;;;;;0.90;0.80;;;5.20;91.70;;;;;;5077407;28;21020;-88
2023/03/12 10:26:13;;;;;;;2.75;1.90;;;5.20;90.90;;;;;;5069619;28;20455;-88
2023/03/12 10:28:50;;;;;;;1.30;1.20;;;5.10;89.70;;;;;;5069252;28;20469;-86
2023/03/12 10:31:25;;;;;;;1.40;1.30;;;5.20;90.30;;;;;;5062359;28;20219;-87
2023/03/12 10:33:59;;;;;;;1.37;1.27;;;5.20;88.40;;;;;;5068848;28;20442;-86
2023/03/12 10:36:36;;;;;;;1.53;1.43;;;5.30;88.20;;;;;;5085838;28;20417;-88
2023/03/12 10:39:03;;;;;;;1.55;1.45;;;5.40;88.40;;;;;;5080850;28;20988;-86
2023/03/12 10:41:30;;;;;;;1.43;1.33;;;5.40;86.90;;;;;;5080071;28;20446;-86
2023/03/12 10:44:00;;;;;;;1.20;1.10;;;5.50;88.30;;;;;;5071270;28;20450;-86
2023/03/12 10:46:56;;;;;;;0.87;0.77;;;5.60;86.50;;;;;;5068461;28;20881;-86
2023/03/12 10:49:24;;;;;;;1.10;1.00;;;5.70;86.70;;;;;;5067160;28;20434;-85
2023/03/12 10:52:26;;;;;;;1.13;1.07;;;5.70;86.60;;;;;;5067289;28;21062;-88
2023/03/12 10:54:52;;;;;;;1.43;1.33;;;5.70;86.60;;;;;;5079998;28;20448;-85
2023/03/12 10:57:19;;;;;;;1.37;1.20;;;5.70;86.90;;;;;;5071845;28;20854;-87
2023/03/12 10:59:47;;;;;;;5.17;1.87;;;5.80;87.00;;;;;;5066246;28;20185;-84
2023/03/12 11:02:36;;;;;;;1.20;1.10;;;5.90;86.40;;;;;;5075264;28;20504;-85
2023/03/12 11:05:19;;;;;;;1.20;1.10;;;5.90;85.40;;;;;;5076819;28;20467;-88
2023/03/12 11:07:45;;;;;;;1.40;1.30;;;5.90;84.90;;;;;;5069409;28;20469;-86
2023/03/12 11:10:12;;;;;;;26.07;2.60;;;5.90;85.80;;;;;;5076072;28;20424;-86
2023/03/12 11:12:39;;;;;;;1.30;1.20;;;6.00;86.50;;;;;;5073303;28;20174;-89
2023/03/12 11:15:19;;;;;;;1.03;0.93;;;6.10;85.30;;;;;;5069329;28;20494;-85
2023/03/12 11:17:45;;;;;;;2.23;2.03;;;6.20;86.40;;;;;;5073766;28;20925;-85
2023/03/12 11:20:20;;;;;;;1.43;1.13;;;6.40;85.40;;;;;;5068548;28;20448;-85
2023/03/12 11:22:46;;;;;;;1.37;1.30;;;6.50;84.50;;;;;;5066075;28;20443;-90
2023/03/12 11:25:26;;;;;;;1.20;1.10;;;6.40;84.20;;;;;;5075751;28;20408;-86
2023/03/12 11:27:55;;;;;;;1.60;1.50;;;6.50;84.80;;;;;;5067220;28;20228;-86
2023/03/12 11:30:33;;;;;;;2.20;1.40;;;6.60;84.30;;;;;;5069398;28;20400;-89
2023/03/12 11:33:01;;;;;;;7.40;2.80;;;6.60;84.40;;;;;;5066204;28;20792;-89
2023/03/12 11:35:48;;;;;;;2.07;1.93;;;6.70;84.70;;;;;;5066552;28;20782;-91
2023/03/12 11:38:18;;;;;;;27.00;4.00;;;6.80;84.90;;;;;;5067933;28;20423;-87
2023/03/12 11:41:25;;;;;;;2.20;2.00;;;6.90;84.70;;;;;;5084931;28;20408;-89
2023/03/12 11:44:12;;;;;;;1.10;1.00;;;6.70;84.50;;;;;;5068118;28;20500;-85
2023/03/12 11:47:18;;;;;;;1.60;1.50;;;6.40;84.90;;;;;;5064989;28;20449;-86
2023/03/12 11:50:16;;;;;;;4.93;2.50;;;6.30;85.00;;;;;;5066512;28;20454;-86
2023/03/12 11:52:57;;;;;;;1.40;1.30;;;6.30;85.60;;;;;;5073063;28;20395;-83
2023/03/12 11:55:47;;;;;;;1.27;1.17;;;6.30;85.50;;;;;;5083082;28;20640;-84
2023/03/12 11:58:48;;;;;;;1.73;1.67;;;6.20;85.40;;;;;;5084517;28;20431;-86
2023/03/12 12:01:21;;;;;;;1.00;0.90;;;6.20;85.90;;;;;;5064750;28;20428;-85
2023/03/12 12:04:25;;;;;;;1.00;0.90;;;6.20;85.70;;;;;;5068493;28;20371;-84
2023/03/12 12:07:11;;;;;;;1.60;1.50;;;6.30;86.30;;;;;;5068332;28;20425;-86
2023/03/12 12:10:04;;;;;;;1.70;1.60;;;6.30;85.50;;;;;;5058540;28;20412;-87
2023/03/12 12:12:48;;;;;;;1.50;1.40;;;6.20;84.80;;;;;;5080684;28;20506;-86
2023/03/12 12:15:25;;;;;;;5.80;1.67;;;6.30;85.90;;;;;;5065663;28;20420;-86
2023/03/12 12:18:23;;;;;;;1.10;1.00;;;6.40;85.00;;;;;;5085635;28;20408;-86
2023/03/12 12:21:07;;;;;;;1.50;1.40;;;6.30;85.30;;;;;;5068288;28;20428;-89
2023/03/12 12:23:39;;;;;;;1.33;1.10;;;6.40;86.40;;;;;;5067672;28;20484;-85
2023/03/12 12:26:04;;;;;;;2.70;1.95;;;6.40;86.10;;;;;;5084791;28;20419;-85
2023/03/12 12:29:17;;;;;;;1.07;0.97;;;6.50;85.80;;;;;;5071808;28;20980;-85
2023/03/12 12:31:55;;;;;;;8.33;2.67;;;6.60;86.40;;;;;;5074368;28;20197;-85
2023/03/12 12:34:58;;;;;;;3.33;1.77;;;6.60;86.60;;;;;;5066017;28;20530;-85
2023/03/12 12:37:32;;;;;;;2.80;2.60;;;6.60;85.80;;;;;;5085789;28;20441;-84
2023/03/12 12:40:07;;;;;;;4.47;2.77;;;6.60;86.10;;;;;;5073519;28;20945;-85
2023/03/12 12:42:37;;;;;;;2.07;1.93;;;6.50;84.70;;;;;;5071047;28;20424;-85
2023/03/12 12:45:04;;;;;;;2.70;1.30;;;6.50;84.30;;;;;;5069050;28;20443;-84
2023/03/12 12:47:45;;;;;;;9.10;1.67;;;6.50;85.00;;;;;;5101525;28;20462;-87
2023/03/12 12:50:18;;;;;;;2.30;1.93;;;6.50;84.60;;;;;;5076491;28;20630;-83
2023/03/12 12:52:52;;;;;;;4.60;2.07;;;6.40;84.90;;;;;;5078068;28;20427;-85
2023/03/12 12:55:38;;;;;;;1.20;1.10;;;6.40;85.40;;;;;;5065257;28;20423;-85
2023/03/12 12:58:12;;;;;;;1.63;1.10;;;6.30;85.40;;;;;;5067090;28;20930;-88
2023/03/12 13:00:55;;;;;;;1.30;1.20;;;6.30;85.20;;;;;;5078722;28;20415;-84
2023/03/12 13:03:23;;;;;;;1.93;1.67;;;6.30;86.00;;;;;;5070682;28;20490;-86
2023/03/12 13:05:58;;;;;;;1.73;1.63;;;6.30;86.60;;;;;;5083056;28;20967;-85
2023/03/12 13:08:39;;;;;;;4.20;3.17;;;6.40;86.70;;;;;;5078989;28;20458;-83
2023/03/12 13:11:13;;;;;;;2.30;1.30;;;6.40;87.30;;;;;;5070265;28;20411;-87
2023/03/12 13:13:41;;;;;;;1.10;1.00;;;6.40;87.00;;;;;;5085826;28;20494;-86
2023/03/12 13:16:37;;;;;;;2.07;1.93;;;6.40;87.80;;;;;;5079728;28;20447;-84
2023/03/12 13:19:15;;;;;;;1.45;1.00;;;6.40;86.90;;;;;;5084493;28;20993;-84